Time;durP1;ratioP1;P1;durP2;ratioP2;P2;SDS_P1;SDS_P2;PMS_P1;PMS_P2;Temp;Humidity;BMP_temperature;BMP_pressure;BME280_temperature;BME280_humidity;BME280_pressure;Samples;Min_cycle;Max_cycle;Signal;HPM_P1;HPM_P2
2023/12/11 00:01:17;;;;;;;24.90;6.22;;;8.50;99.90;;;;;;5070049;28;20052;-70
2023/12/11 00:03:44;;;;;;;23.35;5.05;;;8.40;99.90;;;;;;5069988;28;20408;-69
2023/12/11 00:06:11;;;;;;;23.05;4.30;;;8.40;99.90;;;;;;5071288;28;20045;-69
2023/12/11 00:08:40;;;;;;;27.05;5.38;;;8.30;99.90;;;;;;5073464;28;20048;-68
2023/12/11 00:11:08;;;;;;;24.65;5.55;;;8.20;99.90;;;;;;5073502;28;20052;-68
2023/12/11 00:13:36;;;;;;;27.20;6.13;;;8.20;99.90;;;;;;5071053;28;20048;-68
2023/12/11 00:16:03;;;;;;;30.30;5.30;;;8.20;99.90;;;;;;5073252;28;20068;-68
2023/12/11 00:18:30;;;;;;;28.80;5.68;;;8.10;99.90;;;;;;5073280;28;20135;-69
2023/12/11 00:20:57;;;;;;;28.45;6.90;;;8.00;99.90;;;;;;5070704;28;20377;-70
2023/12/11 00:23:24;;;;;;;28.48;6.38;;;8.10;99.90;;;;;;5072854;28;20071;-68
2023/12/11 00:25:52;;;;;;;23.17;6.03;;;8.00;99.90;;;;;;5073259;28;20123;-68
2023/12/11 00:28:19;;;;;;;28.67;5.95;;;8.00;99.90;;;;;;5072200;28;20055;-68
2023/12/11 00:30:46;;;;;;;28.40;5.90;;;8.10;99.90;;;;;;5072794;28;20044;-69
2023/12/11 00:33:13;;;;;;;26.15;6.13;;;8.10;99.90;;;;;;5073254;28;20059;-69
2023/12/11 00:35:40;;;;;;;27.60;6.65;;;8.10;99.90;;;;;;5073824;28;20048;-70
2023/12/11 00:38:07;;;;;;;36.67;6.82;;;8.10;99.90;;;;;;5073064;28;20049;-70
2023/12/11 00:40:34;;;;;;;32.88;6.53;;;8.20;99.90;;;;;;5072767;28;20055;-70
2023/12/11 00:43:02;;;;;;;35.13;7.15;;;8.20;99.90;;;;;;5072215;28;20442;-69
2023/12/11 00:45:29;;;;;;;38.45;8.15;;;8.20;99.90;;;;;;5073006;28;20075;-68
2023/12/11 00:47:56;;;;;;;39.58;7.03;;;8.30;99.90;;;;;;5072163;28;20052;-69
2023/12/11 00:50:23;;;;;;;38.08;7.75;;;8.30;99.90;;;;;;5072527;28;20079;-68
2023/12/11 00:52:50;;;;;;;31.73;7.35;;;8.30;99.90;;;;;;5072564;28;20055;-68
2023/12/11 00:55:17;;;;;;;37.53;6.68;;;8.30;99.90;;;;;;5073238;28;20049;-69
2023/12/11 00:57:44;;;;;;;41.30;8.45;;;8.30;99.90;;;;;;5072517;28;20051;-69
2023/12/11 01:00:14;;;;;;;28.92;7.47;;;8.30;99.90;;;;;;5072251;28;20055;-68
2023/12/11 01:02:42;;;;;;;35.97;7.65;;;8.30;99.90;;;;;;5071857;28;20400;-68
2023/12/11 01:05:09;;;;;;;29.23;6.88;;;8.30;99.90;;;;;;5072773;28;20131;-67
2023/12/11 01:07:36;;;;;;;32.90;6.88;;;8.30;99.90;;;;;;5070651;28;20488;-69
2023/12/11 01:10:04;;;;;;;31.20;6.90;;;8.30;99.90;;;;;;5071497;28;20051;-69
2023/12/11 01:12:31;;;;;;;46.28;8.93;;;8.40;99.90;;;;;;5072270;28;20044;-69
2023/12/11 01:14:58;;;;;;;35.53;7.10;;;8.50;99.90;;;;;;5072200;28;20056;-69
2023/12/11 01:17:26;;;;;;;34.72;7.82;;;8.40;99.90;;;;;;5071755;28;20063;-69
2023/12/11 01:19:54;;;;;;;32.15;7.32;;;8.50;99.90;;;;;;5072332;28;20048;-69
2023/12/11 01:22:21;;;;;;;27.92;7.00;;;8.50;99.90;;;;;;5073253;28;20054;-69
2023/12/11 01:24:47;;;;;;;31.20;6.10;;;8.50;99.90;;;;;;5072920;28;20053;-68
2023/12/11 01:27:14;;;;;;;44.33;8.85;;;8.60;99.90;;;;;;5073459;28;20055;-69
2023/12/11 01:29:41;;;;;;;34.45;7.55;;;8.60;99.90;;;;;;5071652;28;20063;-68
2023/12/11 01:32:08;;;;;;;32.60;7.55;;;8.60;99.90;;;;;;5071182;28;20052;-68
2023/12/11 01:34:37;;;;;;;28.90;6.90;;;8.70;99.90;;;;;;5071464;28;20048;-69
2023/12/11 01:37:04;;;;;;;24.48;5.75;;;8.70;99.90;;;;;;5071362;28;20052;-69
2023/12/11 01:39:31;;;;;;;26.60;6.97;;;8.70;99.90;;;;;;5071570;28;20051;-68
2023/12/11 01:41:59;;;;;;;27.23;7.30;;;8.70;99.90;;;;;;5071423;28;20052;-68
2023/12/11 01:44:26;;;;;;;40.13;6.90;;;8.70;99.90;;;;;;5070869;28;20048;-68
2023/12/11 01:46:54;;;;;;;30.63;7.50;;;8.60;99.90;;;;;;5071412;28;20048;-69
2023/12/11 01:49:21;;;;;;;30.65;7.07;;;8.60;99.90;;;;;;5071620;28;20108;-68
2023/12/11 01:51:49;;;;;;;27.08;6.45;;;8.60;99.90;;;;;;5070764;28;20051;-69
2023/12/11 01:54:19;;;;;;;39.20;7.40;;;8.60;99.90;;;;;;5071388;28;20049;-69
2023/12/11 01:56:46;;;;;;;31.42;6.50;;;8.60;99.90;;;;;;5070971;28;20140;-69
2023/12/11 01:59:13;;;;;;;29.38;6.82;;;8.60;99.90;;;;;;5070615;28;20048;-69
2023/12/11 02:01:42;;;;;;;25.92;6.53;;;8.70;99.90;;;;;;5071319;28;20449;-69
2023/12/11 02:04:10;;;;;;;24.10;6.32;;;8.70;99.90;;;;;;5071219;28;20049;-69
2023/12/11 02:06:37;;;;;;;25.40;7.20;;;8.70;99.90;;;;;;5070738;28;20048;-68
2023/12/11 02:09:06;;;;;;;32.13;6.15;;;8.70;99.90;;;;;;5071158;28;20052;-68
2023/12/11 02:11:33;;;;;;;29.05;8.57;;;8.70;99.90;;;;;;5071139;28;20040;-68
2023/12/11 02:14:00;;;;;;;25.98;7.38;;;8.70;99.90;;;;;;5070680;28;20044;-68
2023/12/11 02:16:27;;;;;;;28.55;6.22;;;8.60;99.90;;;;;;5070787;28;20048;-68
2023/12/11 02:18:54;;;;;;;24.23;6.10;;;8.70;99.90;;;;;;5071313;28;20407;-68
2023/12/11 02:21:21;;;;;;;31.55;7.18;;;8.70;99.90;;;;;;5070275;28;20051;-68
2023/12/11 02:23:51;;;;;;;35.08;8.18;;;8.60;99.90;;;;;;5071184;28;20059;-68
2023/12/11 02:26:20;;;;;;;20.38;7.07;;;8.60;99.90;;;;;;5068735;28;20048;-67
2023/12/11 02:28:47;;;;;;;25.05;6.78;;;9.60;99.90;;;;;;5070455;28;20048;-68
2023/12/11 02:31:15;;;;;;;28.80;7.53;;;8.50;99.90;;;;;;5070647;28;20062;-68
2023/12/11 02:33:42;;;;;;;41.55;7.72;;;8.50;99.90;;;;;;5070257;28;20124;-68
2023/12/11 02:36:09;;;;;;;29.85;6.85;;;8.40;99.90;;;;;;5070943;28;20044;-68
2023/12/11 02:38:36;;;;;;;38.53;7.55;;;8.40;99.90;;;;;;5070895;28;20048;-68
2023/12/11 02:41:04;;;;;;;31.10;7.18;;;8.40;99.90;;;;;;5070379;28;20400;-68
2023/12/11 02:43:32;;;;;;;26.17;6.65;;;8.40;99.90;;;;;;5070496;28;20055;-68
2023/12/11 02:45:59;;;;;;;30.88;7.72;;;8.50;99.90;;;;;;5070775;28;20091;-68
2023/12/11 02:48:26;;;;;;;34.10;8.07;;;8.50;99.90;;;;;;5071563;28;20403;-68
2023/12/11 02:50:53;;;;;;;36.08;7.55;;;8.60;99.90;;;;;;5070084;28;20048;-67
2023/12/11 02:53:20;;;;;;;32.92;8.27;;;8.50;99.90;;;;;;5069622;28;20159;-67
2023/12/11 02:55:47;;;;;;;43.63;9.02;;;8.60;99.90;;;;;;5068015;28;20050;-69
2023/12/11 02:58:14;;;;;;;38.28;7.35;;;8.60;99.90;;;;;;5071914;28;20049;-68
2023/12/11 03:00:43;;;;;;;38.65;7.57;;;8.60;99.90;;;;;;5070433;28;20054;-68
2023/12/11 03:03:10;;;;;;;24.88;6.68;;;8.60;99.90;;;;;;5069808;28;20045;-68
2023/12/11 03:05:37;;;;;;;32.08;8.23;;;8.60;99.90;;;;;;5070064;28;20047;-68
2023/12/11 03:08:05;;;;;;;34.67;7.60;;;8.60;99.90;;;;;;5070732;28;20048;-69
2023/12/11 03:10:32;;;;;;;30.65;8.23;;;8.60;99.90;;;;;;5069811;28;20052;-69
2023/12/11 03:12:59;;;;;;;37.10;8.85;;;8.60;99.90;;;;;;5070279;28;20044;-69
2023/12/11 03:15:26;;;;;;;49.45;9.18;;;8.60;99.90;;;;;;5070370;28;20055;-69
2023/12/11 03:17:55;;;;;;;36.78;8.77;;;8.60;99.90;;;;;;5069890;28;20040;-69
2023/12/11 03:20:22;;;;;;;37.15;9.43;;;8.60;99.90;;;;;;5069754;28;20056;-69
2023/12/11 03:22:49;;;;;;;39.92;8.65;;;8.70;99.90;;;;;;5069843;28;20053;-68
2023/12/11 03:25:16;;;;;;;49.13;9.50;;;8.70;99.90;;;;;;5070290;28;20056;-68
2023/12/11 03:27:43;;;;;;;41.95;7.50;;;8.70;99.90;;;;;;5071396;28;20052;-68
2023/12/11 03:30:10;;;;;;;41.42;7.63;;;8.70;99.90;;;;;;5069552;28;20060;-68
2023/12/11 03:32:37;;;;;;;36.97;8.15;;;8.70;99.90;;;;;;5070174;28;20480;-67
2023/12/11 03:35:06;;;;;;;38.47;8.45;;;8.70;99.90;;;;;;5069995;28;20045;-68
2023/12/11 03:37:33;;;;;;;41.88;8.68;;;8.70;99.90;;;;;;5069691;28;20055;-69
2023/12/11 03:40:01;;;;;;;35.38;7.35;;;8.70;99.90;;;;;;5071609;28;20045;-68
2023/12/11 03:42:28;;;;;;;32.90;7.20;;;8.80;99.90;;;;;;5073491;28;20512;-68
2023/12/11 03:44:57;;;;;;;34.92;8.32;;;8.80;99.90;;;;;;5073222;28;20111;-68
2023/12/11 03:47:24;;;;;;;34.25;8.45;;;8.80;99.90;;;;;;5071867;28;20066;-68
2023/12/11 03:49:52;;;;;;;32.47;6.93;;;8.90;99.90;;;;;;5073578;28;20484;-68
2023/12/11 03:52:20;;;;;;;37.38;7.90;;;8.90;99.90;;;;;;5072706;28;20040;-69
2023/12/11 03:54:47;;;;;;;47.35;8.38;;;8.90;99.90;;;;;;5071875;28;20051;-69
2023/12/11 03:57:14;;;;;;;52.30;9.90;;;8.90;99.90;;;;;;5073376;28;20408;-68
2023/12/11 03:59:42;;;;;;;43.95;7.97;;;8.90;99.90;;;;;;5072968;28;20060;-69
2023/12/11 04:02:08;;;;;;;29.20;7.40;;;8.90;99.90;;;;;;5072970;28;20048;-68
2023/12/11 04:04:36;;;;;;;33.58;7.80;;;8.90;99.90;;;;;;5073583;28;20060;-69
2023/12/11 04:07:03;;;;;;;33.58;7.03;;;8.90;99.90;;;;;;5072769;28;20049;-69
2023/12/11 04:09:31;;;;;;;30.20;6.30;;;8.90;99.90;;;;;;5073585;28;20135;-69
2023/12/11 04:11:58;;;;;;;44.65;10.52;;;8.90;99.90;;;;;;5072844;28;20055;-68
2023/12/11 04:14:25;;;;;;;36.35;8.77;;;9.00;99.90;;;;;;5071405;28;20045;-69
2023/12/11 04:16:52;;;;;;;38.67;7.53;;;9.00;99.90;;;;;;5073252;28;20057;-69
2023/12/11 04:19:19;;;;;;;34.63;8.25;;;9.00;99.90;;;;;;5072627;28;20496;-69
2023/12/11 04:21:47;;;;;;;40.67;8.73;;;9.00;99.90;;;;;;5073207;28;20045;-69
2023/12/11 04:24:14;;;;;;;29.83;7.22;;;9.10;99.90;;;;;;5073401;28;20404;-69
2023/12/11 04:26:42;;;;;;;37.00;8.48;;;9.00;99.90;;;;;;5072291;28;20051;-69
2023/12/11 04:29:09;;;;;;;42.90;9.23;;;8.90;99.90;;;;;;5073209;28;20397;-69
2023/12/11 04:31:36;;;;;;;31.55;8.35;;;9.00;99.90;;;;;;5073108;28;20048;-69
2023/12/11 04:34:03;;;;;;;38.95;8.32;;;9.00;99.90;;;;;;5072457;28;20393;-70
2023/12/11 04:36:30;;;;;;;32.55;7.00;;;9.00;99.90;;;;;;5072932;28;20139;-69
2023/12/11 04:38:57;;;;;;;28.52;7.88;;;9.00;99.90;;;;;;5073087;28;20404;-70
2023/12/11 04:41:24;;;;;;;32.70;7.15;;;9.00;99.90;;;;;;5072049;28;20050;-69
2023/12/11 04:43:52;;;;;;;33.22;8.15;;;9.00;99.90;;;;;;5072539;28;20045;-68
2023/12/11 04:46:19;;;;;;;38.25;8.73;;;9.00;99.90;;;;;;5072625;28;20044;-69
2023/12/11 04:48:46;;;;;;;31.92;7.65;;;8.90;99.90;;;;;;5072271;28;20048;-69
2023/12/11 04:51:13;;;;;;;32.80;6.65;;;9.00;99.90;;;;;;5072242;28;20065;-68
2023/12/11 04:53:40;;;;;;;37.33;7.18;;;9.00;99.90;;;;;;5072534;28;20056;-68
2023/12/11 04:56:08;;;;;;;29.58;6.65;;;8.90;99.90;;;;;;5071752;28;20044;-67
2023/12/11 04:58:35;;;;;;;33.78;7.25;;;9.00;99.90;;;;;;5072567;28;20515;-67
2023/12/11 05:01:04;;;;;;;33.90;8.07;;;8.90;99.90;;;;;;5071744;28;20045;-67
2023/12/11 05:03:31;;;;;;;31.17;6.95;;;8.90;99.90;;;;;;5072325;28;20051;-67
2023/12/11 05:05:58;;;;;;;32.40;6.63;;;8.90;99.90;;;;;;5073387;28;20048;-69
2023/12/11 05:08:25;;;;;;;33.00;7.25;;;8.90;99.90;;;;;;5071676;28;20051;-69
2023/12/11 05:10:52;;;;;;;25.73;6.38;;;8.90;99.90;;;;;;5073779;28;20045;-68
2023/12/11 05:13:19;;;;;;;29.90;7.30;;;8.90;99.90;;;;;;5072062;28;20041;-68
2023/12/11 05:15:46;;;;;;;28.42;7.13;;;8.90;99.90;;;;;;5069729;28;20052;-68
2023/12/11 05:18:14;;;;;;;37.75;7.65;;;8.80;99.90;;;;;;5071872;28;20135;-68
2023/12/11 05:20:41;;;;;;;33.17;7.30;;;8.80;99.90;;;;;;5073441;28;20427;-68
2023/12/11 05:23:08;;;;;;;31.58;7.55;;;8.80;99.90;;;;;;5071610;28;20469;-68
2023/12/11 05:25:35;;;;;;;31.00;6.63;;;8.80;99.90;;;;;;5071984;28;20048;-69
2023/12/11 05:28:02;;;;;;;38.47;8.43;;;8.80;99.90;;;;;;5072198;28;20041;-68
2023/12/11 05:30:30;;;;;;;35.58;7.82;;;8.80;99.90;;;;;;5071500;28;20055;-69
2023/12/11 05:32:59;;;;;;;35.75;8.05;;;8.80;99.90;;;;;;5071947;28;20062;-69
2023/12/11 05:35:27;;;;;;;38.80;7.97;;;8.80;99.90;;;;;;5070062;28;20447;-69
2023/12/11 05:37:56;;;;;;;33.28;6.32;;;8.80;99.90;;;;;;5071376;28;20041;-68
2023/12/11 05:40:23;;;;;;;33.05;6.60;;;8.90;99.90;;;;;;5071842;28;20048;-69
2023/12/11 05:42:50;;;;;;;31.75;8.18;;;8.80;99.90;;;;;;5071599;28;20059;-68
2023/12/11 05:45:17;;;;;;;33.28;6.13;;;8.90;99.90;;;;;;5071011;28;20127;-68
2023/12/11 05:47:44;;;;;;;27.05;7.05;;;8.90;99.90;;;;;;5071574;28;20412;-68
2023/12/11 05:50:12;;;;;;;29.08;6.85;;;9.00;99.90;;;;;;5065032;28;20508;-69
2023/12/11 05:52:40;;;;;;;33.45;7.75;;;9.00;99.90;;;;;;5068769;28;20051;-69
2023/12/11 05:55:07;;;;;;;36.17;6.45;;;9.00;99.90;;;;;;5070690;28;20075;-69
2023/12/11 05:57:34;;;;;;;33.35;6.78;;;8.90;99.90;;;;;;5069864;28;20052;-69
2023/12/11 06:00:01;;;;;;;26.38;6.97;;;8.90;99.90;;;;;;5098510;28;20040;-70
2023/12/11 06:02:29;;;;;;;26.77;6.40;;;8.90;99.90;;;;;;5103824;28;20402;-69
2023/12/11 06:04:56;;;;;;;35.17;8.18;;;8.80;99.90;;;;;;5064616;28;20049;-68
2023/12/11 06:07:23;;;;;;;32.75;6.22;;;8.70;99.90;;;;;;5069211;28;20055;-68
2023/12/11 06:09:52;;;;;;;25.98;6.35;;;8.70;99.90;;;;;;5070224;28;20153;-68
2023/12/11 06:12:19;;;;;;;30.40;6.30;;;8.70;99.90;;;;;;5068487;28;20097;-70
2023/12/11 06:14:46;;;;;;;35.42;6.28;;;8.70;99.90;;;;;;5069313;28;20055;-69
2023/12/11 06:17:13;;;;;;;26.85;6.68;;;8.70;99.90;;;;;;5068338;28;20044;-70
2023/12/11 06:19:42;;;;;;;23.75;6.43;;;8.70;99.90;;;;;;5065914;28;20045;-69
2023/12/11 06:22:09;;;;;;;28.80;6.03;;;8.70;99.90;;;;;;5071088;28;20068;-69
2023/12/11 06:24:38;;;;;;;28.60;6.03;;;8.70;99.90;;;;;;5070202;28;20044;-69
2023/12/11 06:27:07;;;;;;;24.60;6.25;;;8.70;99.90;;;;;;5069209;28;20045;-69
2023/12/11 06:29:35;;;;;;;31.35;6.30;;;8.70;99.90;;;;;;5070142;28;20044;-69
2023/12/11 06:32:02;;;;;;;24.38;6.00;;;8.70;99.90;;;;;;5071213;28;20088;-69
2023/12/11 06:34:30;;;;;;;31.15;6.47;;;8.70;99.90;;;;;;5069117;28;20481;-69
2023/12/11 06:36:57;;;;;;;23.55;5.78;;;8.60;99.90;;;;;;5069311;28;20040;-68
2023/12/11 06:39:25;;;;;;;35.05;6.32;;;8.60;99.90;;;;;;5068516;28;20048;-68
2023/12/11 06:41:52;;;;;;;31.20;6.25;;;8.60;99.90;;;;;;5069130;28;20044;-68
2023/12/11 06:44:21;;;;;;;25.30;5.70;;;8.60;99.90;;;;;;5069902;28;20070;-69
2023/12/11 06:46:48;;;;;;;20.27;5.40;;;8.70;99.90;;;;;;5069355;28;20079;-70
2023/12/11 06:49:15;;;;;;;22.13;5.18;;;8.60;99.90;;;;;;5068292;28;20051;-69
2023/12/11 06:51:42;;;;;;;30.73;5.55;;;8.60;99.90;;;;;;5070091;28;20060;-70
2023/12/11 06:54:10;;;;;;;24.42;6.40;;;8.60;99.90;;;;;;5066226;28;20040;-70
2023/12/11 06:56:39;;;;;;;24.48;6.60;;;8.60;99.90;;;;;;5068947;28;20044;-70
2023/12/11 06:59:06;;;;;;;27.58;5.53;;;8.20;99.90;;;;;;5069298;28;20501;-69
2023/12/11 07:01:35;;;;;;;27.73;4.95;;;8.70;99.90;;;;;;5069100;28;20076;-69
2023/12/11 07:04:02;;;;;;;26.65;5.97;;;8.60;99.90;;;;;;5069323;28;20158;-69
2023/12/11 07:06:29;;;;;;;24.73;5.45;;;8.70;99.90;;;;;;5069578;28;20495;-69
2023/12/11 07:08:57;;;;;;;24.85;6.65;;;8.70;99.90;;;;;;5103389;28;20044;-70
2023/12/11 07:11:25;;;;;;;28.48;5.95;;;8.70;99.90;;;;;;5069525;28;20047;-71
2023/12/11 07:13:52;;;;;;;29.77;6.68;;;8.60;99.90;;;;;;5069872;28;20052;-69
2023/12/11 07:16:19;;;;;;;24.75;6.57;;;8.70;99.90;;;;;;5072717;28;20098;-70
2023/12/11 07:18:48;;;;;;;29.15;6.15;;;8.60;99.90;;;;;;5073880;28;20427;-70
2023/12/11 07:21:15;;;;;;;26.65;5.80;;;8.60;99.90;;;;;;5073327;28;20048;-69
2023/12/11 07:23:43;;;;;;;25.42;5.80;;;8.60;99.90;;;;;;5073401;28;20075;-69
2023/12/11 07:26:10;;;;;;;20.80;4.70;;;8.60;99.90;;;;;;5073173;28;20059;-69
2023/12/11 07:28:38;;;;;;;19.65;4.05;;;8.60;99.90;;;;;;5073801;28;20049;-68
2023/12/11 07:31:06;;;;;;;19.55;4.20;;;8.70;99.90;;;;;;5072753;28;20048;-69
2023/12/11 07:33:33;;;;;;;21.63;5.03;;;8.70;99.90;;;;;;5072865;28;20051;-69
2023/12/11 07:36:02;;;;;;;17.58;4.50;;;8.60;99.90;;;;;;5072724;28;20041;-68
2023/12/11 07:38:30;;;;;;;19.83;4.50;;;8.70;99.90;;;;;;5073179;28;20163;-68
2023/12/11 07:40:59;;;;;;;18.55;5.05;;;8.60;99.90;;;;;;5107050;28;20095;-69
2023/12/11 07:43:26;;;;;;;17.85;4.20;;;8.60;99.90;;;;;;5072108;28;20511;-69
2023/12/11 07:45:53;;;;;;;21.92;5.18;;;8.70;99.90;;;;;;5071650;28;20044;-69
2023/12/11 07:48:19;;;;;;;15.60;4.65;;;8.60;99.90;;;;;;5074262;28;20408;-68
2023/12/11 07:50:46;;;;;;;21.52;4.43;;;8.60;99.90;;;;;;5070367;28;20054;-70
2023/12/11 07:53:14;;;;;;;19.23;3.92;;;8.60;99.90;;;;;;5072045;28;20063;-70
2023/12/11 07:55:41;;;;;;;17.42;3.67;;;8.60;99.90;;;;;;5072505;28;20413;-69
2023/12/11 07:58:10;;;;;;;25.83;5.95;;;8.70;99.90;;;;;;5072552;28;20048;-69
2023/12/11 08:00:37;;;;;;;13.57;4.18;;;8.60;99.90;;;;;;5072556;28;20550;-70
2023/12/11 08:03:06;;;;;;;16.80;4.72;;;8.60;99.90;;;;;;5072826;28;20040;-70
2023/12/11 08:05:33;;;;;;;21.73;3.88;;;8.60;99.90;;;;;;5071028;28;20415;-70
2023/12/11 08:08:00;;;;;;;17.40;4.97;;;8.60;99.90;;;;;;5072781;28;20053;-68
2023/12/11 08:10:29;;;;;;;17.08;4.45;;;8.60;99.90;;;;;;5072250;28;20048;-68
2023/12/11 08:12:55;;;;;;;22.05;3.90;;;8.70;99.90;;;;;;5072355;28;20044;-69
2023/12/11 08:15:22;;;;;;;18.67;4.70;;;8.70;99.90;;;;;;5071720;28;20063;-69
2023/12/11 08:17:49;;;;;;;15.65;4.38;;;8.70;99.90;;;;;;5072658;28;20356;-69
2023/12/11 08:20:19;;;;;;;17.25;4.20;;;8.70;99.90;;;;;;5071600;28;20052;-70
2023/12/11 08:22:46;;;;;;;17.50;3.90;;;8.70;99.90;;;;;;5072059;28;20078;-69
2023/12/11 08:25:13;;;;;;;14.27;3.63;;;8.70;99.90;;;;;;5066884;28;20059;-70
2023/12/11 08:27:42;;;;;;;13.30;3.70;;;8.70;99.90;;;;;;5068373;28;20110;-70
2023/12/11 08:30:10;;;;;;;14.20;3.45;;;8.70;99.90;;;;;;5072127;28;20450;-71
2023/12/11 08:32:38;;;;;;;10.75;3.08;;;8.70;99.90;;;;;;5068687;28;20521;-70
2023/12/11 08:35:07;;;;;;;13.30;3.55;;;8.70;99.90;;;;;;5071637;28;20401;-69
2023/12/11 08:37:34;;;;;;;13.85;3.92;;;8.70;99.90;;;;;;5072665;28;20072;-69
2023/12/11 08:40:03;;;;;;;14.00;3.55;;;8.70;99.90;;;;;;5071256;28;20055;-69
2023/12/11 08:42:31;;;;;;;11.05;3.20;;;8.70;99.90;;;;;;5071014;28;20420;-69
2023/12/11 08:45:00;;;;;;;12.77;3.75;;;8.70;99.90;;;;;;5072512;28;20512;-69
2023/12/11 08:47:27;;;;;;;13.05;3.40;;;8.70;99.90;;;;;;5100373;28;20137;-69
2023/12/11 08:49:54;;;;;;;16.52;4.05;;;8.70;99.90;;;;;;5071110;28;20048;-70
2023/12/11 08:52:21;;;;;;;14.32;3.70;;;8.70;99.90;;;;;;5072904;28;20117;-69
2023/12/11 08:54:50;;;;;;;12.90;3.72;;;8.70;99.90;;;;;;5070736;28;20436;-69
2023/12/11 08:57:18;;;;;;;17.42;4.65;;;8.70;99.90;;;;;;5071247;28;20048;-70
2023/12/11 08:59:45;;;;;;;12.82;3.38;;;8.70;99.90;;;;;;5071361;28;20143;-70
2023/12/11 09:02:14;;;;;;;16.73;5.00;;;8.70;99.90;;;;;;5070789;28;20074;-69
2023/12/11 09:04:41;;;;;;;20.98;4.53;;;8.70;99.90;;;;;;5071539;28;20052;-69
2023/12/11 09:07:09;;;;;;;10.43;3.97;;;8.70;99.90;;;;;;5070900;28;20052;-70
2023/12/11 09:09:37;;;;;;;15.98;4.80;;;8.80;99.90;;;;;;5070805;28;20056;-70
2023/12/11 09:12:05;;;;;;;13.93;4.40;;;8.70;99.90;;;;;;5070548;28;20102;-69
2023/12/11 09:14:33;;;;;;;16.02;4.38;;;8.80;99.90;;;;;;5070586;28;20048;-70
2023/12/11 09:17:00;;;;;;;21.00;5.90;;;8.80;99.90;;;;;;5070700;28;20061;-69
2023/12/11 09:19:28;;;;;;;15.88;4.78;;;8.80;99.90;;;;;;5072372;28;20051;-71
2023/12/11 09:21:56;;;;;;;19.80;5.38;;;8.80;99.90;;;;;;5102060;28;20052;-70
2023/12/11 09:24:23;;;;;;;16.38;4.20;;;8.90;99.90;;;;;;5070389;28;20052;-70
2023/12/11 09:26:50;;;;;;;20.40;5.65;;;8.90;99.90;;;;;;5070030;28;20045;-70
2023/12/11 09:29:17;;;;;;;18.33;5.00;;;8.90;99.90;;;;;;5103790;28;20075;-70
2023/12/11 09:31:45;;;;;;;18.42;4.20;;;8.90;99.90;;;;;;5103764;28;20056;-69
2023/12/11 09:34:12;;;;;;;16.77;4.38;;;8.90;99.90;;;;;;5070385;28;20067;-69
2023/12/11 09:36:40;;;;;;;16.02;4.78;;;8.90;99.90;;;;;;5069167;28;20048;-69
2023/12/11 09:39:08;;;;;;;19.55;5.22;;;8.90;99.90;;;;;;5070914;28;20048;-69
2023/12/11 09:41:35;;;;;;;23.65;4.88;;;9.00;99.90;;;;;;5069275;28;20488;-68
2023/12/11 09:44:03;;;;;;;12.93;4.47;;;9.00;99.90;;;;;;5069572;28;20080;-68
2023/12/11 09:46:38;;;;;;;15.00;4.53;;;8.90;99.90;;;;;;5070449;28;20048;-68
2023/12/11 09:49:05;;;;;;;19.65;5.47;;;9.00;99.90;;;;;;5070343;28;20052;-69
2023/12/11 09:51:32;;;;;;;22.77;5.90;;;8.90;99.90;;;;;;5069299;28;20051;-68
2023/12/11 09:54:02;;;;;;;22.00;4.75;;;9.00;99.90;;;;;;5068626;28;20055;-68
2023/12/11 09:56:30;;;;;;;25.92;5.30;;;9.00;99.90;;;;;;5068184;28;20385;-68
2023/12/11 09:58:58;;;;;;;13.38;4.78;;;9.00;99.90;;;;;;5067819;28;20361;-68
2023/12/11 10:01:25;;;;;;;20.50;4.88;;;9.00;99.90;;;;;;5070139;28;20044;-69
2023/12/11 10:03:53;;;;;;;13.90;4.38;;;9.00;99.90;;;;;;5069177;28;20052;-69
2023/12/11 10:06:19;;;;;;;15.02;3.70;;;9.00;99.90;;;;;;5069532;28;20044;-69
2023/12/11 10:08:52;;;;;;;17.73;5.15;;;9.10;99.90;;;;;;5070373;28;20062;-69
2023/12/11 10:11:22;;;;;;;22.88;4.22;;;9.20;99.90;;;;;;5068769;28;20136;-69
2023/12/11 10:13:49;;;;;;;15.48;4.00;;;9.30;99.90;;;;;;5103979;28;20045;-69
2023/12/11 10:16:30;;;;;;;17.70;3.55;;;9.40;99.90;;;;;;5069567;28;20059;-69
2023/12/11 10:18:57;;;;;;;17.25;5.00;;;9.40;99.90;;;;;;5069294;28;20048;-69
2023/12/11 10:21:25;;;;;;;15.52;3.65;;;9.40;99.90;;;;;;5069247;28;20053;-69
2023/12/11 10:24:02;;;;;;;12.73;3.33;;;9.40;99.90;;;;;;5070268;28;20093;-69
2023/12/11 10:26:32;;;;;;;11.20;3.03;;;9.50;99.90;;;;;;5068943;28;20381;-68
2023/12/11 10:29:18;;;;;;;13.00;2.90;;;9.40;99.90;;;;;;5101824;28;20515;-67
2023/12/11 10:31:45;;;;;;;14.10;3.92;;;9.40;99.90;;;;;;5068543;28;20052;-68
2023/12/11 10:34:12;;;;;;;13.77;3.40;;;9.40;99.90;;;;;;5070267;28;20059;-69
2023/12/11 10:36:49;;;;;;;17.85;4.18;;;9.30;99.90;;;;;;5067530;28;20053;-69
2023/12/11 10:39:16;;;;;;;11.82;3.58;;;9.40;99.90;;;;;;5068863;28;20051;-69
2023/12/11 10:41:46;;;;;;;15.32;3.70;;;9.40;99.90;;;;;;5068498;28;20044;-69
2023/12/11 10:44:24;;;;;;;17.98;3.85;;;9.60;99.90;;;;;;5071361;28;20464;-69
2023/12/11 10:46:54;;;;;;;12.15;3.63;;;9.90;99.90;;;;;;5102690;28;20461;-69
2023/12/11 10:49:22;;;;;;;16.25;3.92;;;10.10;99.90;;;;;;5068431;28;20059;-69
2023/12/11 10:51:50;;;;;;;15.02;3.95;;;10.10;99.90;;;;;;5068450;28;20048;-70
2023/12/11 10:54:17;;;;;;;17.40;3.83;;;10.00;99.90;;;;;;5065200;28;20063;-69
2023/12/11 10:56:48;;;;;;;16.63;3.97;;;9.80;99.90;;;;;;5068368;28;20090;-69
2023/12/11 10:59:16;;;;;;;18.25;3.72;;;9.80;99.90;;;;;;5069263;28;20084;-69
2023/12/11 11:01:46;;;;;;;10.05;3.55;;;9.70;99.90;;;;;;5065288;28;20048;-69
2023/12/11 11:04:14;;;;;;;18.42;4.93;;;9.70;99.90;;;;;;5103371;28;20052;-69
2023/12/11 11:06:48;;;;;;;16.00;3.75;;;9.50;99.90;;;;;;5066883;28;20044;-69
2023/12/11 11:09:21;;;;;;;14.38;4.70;;;9.50;99.90;;;;;;5068792;28;20447;-68
2023/12/11 11:11:57;;;;;;;17.48;4.22;;;9.50;99.90;;;;;;5067898;28;20052;-69
2023/12/11 11:14:46;;;;;;;19.90;3.80;;;9.50;99.90;;;;;;5067845;28;20056;-69
2023/12/11 11:17:12;;;;;;;13.55;3.67;;;9.40;99.90;;;;;;5066669;28;20560;-69
2023/12/11 11:20:10;;;;;;;13.90;3.88;;;9.40;99.90;;;;;;5068333;28;20049;-71
2023/12/11 11:22:36;;;;;;;14.50;3.35;;;9.40;99.90;;;;;;5068435;28;20435;-69
2023/12/11 11:25:32;;;;;;;16.33;3.67;;;9.50;99.90;;;;;;5069309;28;20114;-70
2023/12/11 11:28:00;;;;;;;14.30;3.72;;;9.50;99.90;;;;;;5069161;28;20405;-69
2023/12/11 11:30:51;;;;;;;13.65;3.78;;;9.50;99.90;;;;;;5069027;28;20052;-68
2023/12/11 11:33:19;;;;;;;10.98;2.40;;;9.50;99.90;;;;;;5069398;28;20055;-69
2023/12/11 11:35:53;;;;;;;17.20;3.00;;;9.60;99.90;;;;;;5066967;28;20133;-68
2023/12/11 11:38:21;;;;;;;12.43;3.28;;;9.80;99.90;;;;;;5069463;28;20040;-69
2023/12/11 11:40:51;;;;;;;10.43;2.28;;;9.70;99.90;;;;;;5069163;28;20060;-70
2023/12/11 11:43:19;;;;;;;15.13;2.78;;;9.60;99.90;;;;;;5068329;28;20458;-69
2023/12/11 11:45:46;;;;;;;7.88;2.30;;;9.60;99.90;;;;;;5068801;28;20507;-70
2023/12/11 11:48:13;;;;;;;7.72;2.10;;;9.60;99.90;;;;;;5069397;28;20055;-70
2023/12/11 11:50:54;;;;;;;6.63;1.88;;;9.50;99.90;;;;;;5068487;28;20102;-69
2023/12/11 11:53:22;;;;;;;13.25;2.67;;;9.40;99.90;;;;;;5069377;28;20052;-70
2023/12/11 11:55:50;;;;;;;8.32;2.60;;;9.60;99.90;;;;;;5069039;28;20401;-69
2023/12/11 11:58:18;;;;;;;8.52;2.53;;;9.50;99.90;;;;;;5066825;28;20076;-69
2023/12/11 12:00:46;;;;;;;6.90;1.85;;;9.50;99.90;;;;;;5069024;28;20041;-69
2023/12/11 12:03:13;;;;;;;7.53;2.10;;;9.40;99.90;;;;;;5072584;28;20059;-70
2023/12/11 12:05:54;;;;;;;6.70;2.30;;;9.40;99.90;;;;;;5070748;28;20098;-69
2023/12/11 12:08:21;;;;;;;8.40;1.50;;;9.30;99.90;;;;;;5072889;28;20040;-70
2023/12/11 12:10:48;;;;;;;7.57;1.80;;;9.30;99.90;;;;;;5071664;28;20059;-70
2023/12/11 12:13:15;;;;;;;5.80;1.98;;;9.30;99.90;;;;;;5072744;28;20098;-70
2023/12/11 12:15:49;;;;;;;6.18;2.17;;;9.40;99.90;;;;;;5070206;28;20459;-69
2023/12/11 12:18:16;;;;;;;11.98;2.05;;;9.40;99.90;;;;;;5066552;28;20500;-69
2023/12/11 12:20:43;;;;;;;10.43;3.05;;;9.40;99.90;;;;;;5070788;28;20048;-69
2023/12/11 12:23:09;;;;;;;14.43;3.13;;;9.50;99.90;;;;;;5069546;28;20048;-68
2023/12/11 12:25:36;;;;;;;16.88;3.50;;;9.40;99.90;;;;;;5070803;28;20438;-69
2023/12/11 12:28:06;;;;;;;11.80;3.28;;;9.30;99.90;;;;;;5071735;28;20064;-70
2023/12/11 12:30:34;;;;;;;20.67;4.22;;;9.30;99.90;;;;;;5072208;28;20104;-69
2023/12/11 12:33:04;;;;;;;17.05;3.85;;;9.20;99.90;;;;;;5071026;28;20040;-69
2023/12/11 12:35:34;;;;;;;12.23;3.63;;;9.10;99.90;;;;;;5071088;28;20048;-69
2023/12/11 12:38:02;;;;;;;11.93;3.47;;;9.10;99.90;;;;;;5071800;28;20052;-69
2023/12/11 12:40:29;;;;;;;13.95;2.90;;;9.00;99.90;;;;;;5104512;28;20102;-69
2023/12/11 12:42:56;;;;;;;11.98;3.05;;;9.00;99.90;;;;;;5071102;28;20056;-69
2023/12/11 12:45:28;;;;;;;14.82;3.55;;;9.00;99.90;;;;;;5069465;28;20044;-68
2023/12/11 12:47:55;;;;;;;13.18;3.30;;;9.00;99.90;;;;;;5070569;28;20102;-69
2023/12/11 12:50:25;;;;;;;13.52;3.70;;;8.90;99.90;;;;;;5072218;28;20131;-69
2023/12/11 12:53:03;;;;;;;22.70;3.80;;;8.90;99.90;;;;;;5070607;28;20049;-69